createdAt,value
2022-11-16T00:02:13.887Z,99754.18
2022-11-16T00:04:42.417Z,99750.14
2022-11-16T00:07:10.569Z,99750.73
2022-11-16T00:09:38.725Z,99747.20
2022-11-16T00:12:08.835Z,99746.67
2022-11-16T00:14:37.055Z,99747.04
2022-11-16T00:17:05.277Z,99750.27
2022-11-16T00:19:33.245Z,99748.86
2022-11-16T00:22:01.185Z,99745.02
2022-11-16T00:24:29.181Z,99738.55
2022-11-16T00:26:57.185Z,99738.67
2022-11-16T00:29:26.916Z,99741.19
2022-11-16T00:31:55.534Z,99739.37
2022-11-16T00:34:24.447Z,99737.01
2022-11-16T00:36:52.771Z,99737.48
2022-11-16T00:39:21.227Z,99736.63
2022-11-16T00:41:50.154Z,99733.36
2022-11-16T00:44:18.910Z,99732.25
2022-11-16T00:46:47.955Z,99728.79
2022-11-16T00:49:16.218Z,99723.69
2022-11-16T00:51:44.549Z,99721.39
2022-11-16T00:54:13.020Z,99716.30
2022-11-16T00:56:41.498Z,99710.45
2022-11-16T00:59:09.684Z,99706.52
2022-11-16T01:01:37.833Z,99706.77
2022-11-16T01:04:07.355Z,99703.61
2022-11-16T01:06:35.520Z,99699.67
2022-11-16T01:09:03.390Z,99696.56
2022-11-16T01:11:50.032Z,99689.70
2022-11-16T01:14:18.028Z,99684.29
2022-11-16T01:16:49.887Z,99682.50
2022-11-16T01:19:17.852Z,99682.55
2022-11-16T01:21:45.969Z,99677.14
2022-11-16T01:24:14.313Z,99670.15
2022-11-16T01:26:42.499Z,99666.56
2022-11-16T01:29:10.715Z,99667.36
2022-11-16T01:31:41.937Z,99664.92
2022-11-16T01:34:10.025Z,99659.51
2022-11-16T01:36:38.149Z,99653.45
2022-11-16T01:39:06.745Z,99645.13
2022-11-16T01:41:44.399Z,99645.83
2022-11-16T01:44:15.485Z,99642.06
2022-11-16T01:46:52.733Z,99639.98
2022-11-16T01:49:24.552Z,99638.58
2022-11-16T01:52:03.163Z,99641.45
2022-11-16T01:54:41.347Z,99639.42
2022-11-16T01:57:14.214Z,99632.40
2022-11-16T01:59:53.177Z,99629.71
2022-11-16T02:02:22.564Z,99632.73
2022-11-16T02:04:52.829Z,99632.02
2022-11-16T02:08:02.583Z,99628.27
2022-11-16T02:11:01.544Z,99620.02
2022-11-16T02:13:56.920Z,99615.16
2022-11-16T02:16:39.953Z,99614.12
2022-11-16T02:19:20.161Z,99612.61
2022-11-16T02:22:05.123Z,99609.14
2022-11-16T02:24:55.366Z,99603.80
2022-11-16T02:28:00.926Z,99603.30
2022-11-16T02:30:29.110Z,99598.20
2022-11-16T02:33:01.115Z,99605.37
2022-11-16T02:35:57.151Z,99608.66
2022-11-16T02:38:31.996Z,99606.98
2022-11-16T02:41:15.312Z,99602.30
2022-11-16T02:43:49.069Z,99596.97
2022-11-16T02:46:22.834Z,99595.11
2022-11-16T02:48:55.258Z,99594.84
2022-11-16T02:51:26.498Z,99592.27
2022-11-16T02:54:04.791Z,99590.45
2022-11-16T02:56:50.781Z,99588.51
2022-11-16T02:59:22.349Z,99584.08
2022-11-16T03:01:59.454Z,99581.59
2022-11-16T03:04:41.215Z,99575.60
2022-11-16T03:07:14.396Z,99571.60
2022-11-16T03:09:44.653Z,99564.80
2022-11-16T03:12:25.715Z,99561.85
2022-11-16T03:15:00.040Z,99559.58
2022-11-16T03:17:39.691Z,99555.97
2022-11-16T03:20:18.084Z,99552.12
2022-11-16T03:22:49.864Z,99553.37
2022-11-16T03:25:21.167Z,99550.38
2022-11-16T03:28:03.257Z,99550.09
2022-11-16T03:30:48.627Z,99550.87
2022-11-16T03:33:23.012Z,99545.11
2022-11-16T03:35:57.876Z,99536.44
2022-11-16T03:38:28.658Z,99538.95
2022-11-16T03:41:01.981Z,99539.55
2022-11-16T03:43:31.575Z,99535.09
2022-11-16T03:46:01.318Z,99538.39
2022-11-16T03:48:37.136Z,99537.02
2022-11-16T03:51:11.513Z,99532.30
2022-11-16T03:53:40.688Z,99534.98
2022-11-16T03:56:09.706Z,99535.27
2022-11-16T03:58:39.650Z,99532.51
2022-11-16T04:01:08.100Z,99530.96
2022-11-16T04:03:36.836Z,99531.70
2022-11-16T04:06:23.579Z,99526.87
2022-11-16T04:09:29.830Z,99524.58
2022-11-16T04:12:16.379Z,99513.73
2022-11-16T04:15:03.532Z,99508.73
2022-11-16T04:17:51.333Z,99510.63
2022-11-16T04:20:37.982Z,99508.09
2022-11-16T04:23:33.757Z,99499.53
2022-11-16T04:26:03.599Z,99491.70
2022-11-16T04:28:34.389Z,99492.35
2022-11-16T04:31:24.601Z,99491.61
2022-11-16T04:34:22.227Z,99486.56
2022-11-16T04:37:11.297Z,99485.70
2022-11-16T04:39:39.577Z,99479.80
2022-11-16T04:42:20.125Z,99479.95
2022-11-16T04:45:09.093Z,99478.31
2022-11-16T04:47:42.313Z,99474.77
2022-11-16T04:50:11.009Z,99469.39
2022-11-16T04:52:40.387Z,99469.38
2022-11-16T04:55:10.355Z,99468.52
2022-11-16T04:57:40.423Z,99468.66
2022-11-16T05:00:09.156Z,99470.67
2022-11-16T05:02:37.591Z,99470.54
2022-11-16T05:05:06.706Z,99471.52
2022-11-16T05:07:35.867Z,99465.54
2022-11-16T05:10:10.525Z,99465.88
2022-11-16T05:12:39.166Z,99465.95
2022-11-16T05:15:08.971Z,99470.02
2022-11-16T05:17:37.338Z,99471.56
2022-11-16T05:20:26.238Z,99471.20
2022-11-16T05:22:58.613Z,99463.71
2022-11-16T05:25:36.229Z,99457.42
2022-11-16T05:28:06.857Z,99450.13
2022-11-16T05:30:37.915Z,99442.67
2022-11-16T05:33:06.132Z,99442.73
2022-11-16T05:35:37.763Z,99444.14
2022-11-16T05:38:06.511Z,99447.70
2022-11-16T05:40:36.911Z,99448.59
2022-11-16T05:43:05.239Z,99448.16
2022-11-16T05:45:36.375Z,99446.56
2022-11-16T05:48:05.626Z,99447.21
2022-11-16T05:50:36.288Z,99446.89
2022-11-16T05:53:14.086Z,99451.09
2022-11-16T05:55:42.504Z,99453.17
2022-11-16T05:58:10.612Z,99458.09
2022-11-16T06:00:38.635Z,99459.00
2022-11-16T06:03:07.614Z,99455.55
2022-11-16T06:05:40.290Z,99454.60
2022-11-16T06:08:10.358Z,99444.09
2022-11-16T06:10:38.689Z,99435.73
2022-11-16T06:13:07.052Z,99440.81
2022-11-16T06:15:38.151Z,99443.94
2022-11-16T06:18:09.411Z,99437.69
2022-11-16T06:20:39.514Z,99434.77
2022-11-16T06:23:07.761Z,99434.63
2022-11-16T06:25:38.623Z,99436.53
2022-11-16T06:28:08.265Z,99435.50
2022-11-16T06:30:38.588Z,99434.88
2022-11-16T06:33:07.453Z,99436.39
2022-11-16T06:35:35.396Z,99435.58
2022-11-16T06:38:03.944Z,99430.13
2022-11-16T06:40:33.321Z,99427.55
2022-11-16T06:43:02.694Z,99423.54
2022-11-16T06:45:32.011Z,99418.84
2022-11-16T06:48:01.575Z,99415.77
2022-11-16T06:50:30.093Z,99412.96
2022-11-16T06:53:00.894Z,99410.52
2022-11-16T06:55:30.388Z,99409.48
2022-11-16T06:57:58.234Z,99407.74
2022-11-16T07:00:26.253Z,99410.50
2022-11-16T07:02:54.919Z,99409.18
2022-11-16T07:05:23.792Z,99408.17
2022-11-16T07:07:55.965Z,99406.21
2022-11-16T07:10:25.426Z,99403.36
2022-11-16T07:12:53.744Z,99400.65
2022-11-16T07:15:22.415Z,99397.73
2022-11-16T07:17:50.799Z,99398.02
2022-11-16T07:20:19.478Z,99397.64
2022-11-16T07:22:47.411Z,99394.63
2022-11-16T07:25:16.171Z,99388.34
2022-11-16T07:27:44.603Z,99385.96
2022-11-16T07:30:13.176Z,99385.79
2022-11-16T07:33:04.594Z,99382.27
2022-11-16T07:35:51.250Z,99379.54
2022-11-16T07:38:19.953Z,99378.66
2022-11-16T07:40:48.542Z,99372.16
2022-11-16T07:43:19.734Z,99369.30
2022-11-16T07:49:10.961Z,99366.10
2022-11-16T07:52:10.577Z,99364.73
2022-11-16T07:54:59.084Z,99361.66
2022-11-16T07:57:28.634Z,99359.55
2022-11-16T07:59:57.358Z,99358.55
2022-11-16T08:02:25.339Z,99355.33
2022-11-16T08:04:53.731Z,99354.66
2022-11-16T08:07:24.852Z,99352.80
2022-11-16T08:09:56.227Z,99349.61
2022-11-16T08:12:24.837Z,99345.73
2022-11-16T08:14:53.553Z,99342.31
2022-11-16T08:17:21.651Z,99343.21
2022-11-16T08:19:50.684Z,99343.19
2022-11-16T08:22:19.447Z,99343.50
2022-11-16T08:24:47.977Z,99344.42
2022-11-16T08:27:17.658Z,99345.08
2022-11-16T08:29:47.807Z,99344.84
2022-11-16T08:32:16.059Z,99345.00
2022-11-16T08:34:45.096Z,99339.32
2022-11-16T08:37:14.028Z,99339.91
2022-11-16T08:39:45.709Z,99343.90
2022-11-16T08:42:13.829Z,99339.50
2022-11-16T08:44:46.416Z,99337.85
2022-11-16T08:47:16.301Z,99341.69
2022-11-16T08:49:50.620Z,99340.11
2022-11-16T08:52:20.405Z,99344.22
2022-11-16T08:54:49.934Z,99342.58
2022-11-16T08:57:18.240Z,99342.73
2022-11-16T08:59:48.402Z,99337.95
2022-11-16T09:02:16.725Z,99336.92
2022-11-16T09:04:44.671Z,99336.92
2022-11-16T09:07:12.675Z,99333.54
2022-11-16T09:09:40.502Z,99332.13
2022-11-16T09:12:08.707Z,99331.20
2022-11-16T09:14:36.909Z,99332.48
2022-11-16T09:17:04.865Z,99330.07
2022-11-16T09:19:32.855Z,99330.30
2022-11-16T09:22:01.032Z,99329.51
2022-11-16T09:24:29.138Z,99328.52
2022-11-16T09:27:01.532Z,99328.08
2022-11-16T09:29:29.751Z,99326.80
2022-11-16T09:31:58.431Z,99323.79
2022-11-16T09:34:26.226Z,99318.41
2022-11-16T09:36:54.575Z,99318.34
2022-11-16T09:39:31.381Z,99314.39
2022-11-16T09:42:27.093Z,99311.28
2022-11-16T09:45:00.836Z,99306.34
2022-11-16T09:47:41.484Z,99304.63
2022-11-16T09:50:22.488Z,99298.59
2022-11-16T09:52:52.734Z,99289.14
2022-11-16T09:55:32.226Z,99281.21
2022-11-16T09:58:03.714Z,99274.30
2022-11-16T10:00:35.083Z,99267.41
2022-11-16T10:03:06.777Z,99262.55
2022-11-16T10:05:42.748Z,99264.44
2022-11-16T10:08:15.433Z,99259.91
2022-11-16T10:11:06.649Z,99256.26
2022-11-16T10:14:04.301Z,99252.85
2022-11-16T10:16:45.505Z,99251.06
2022-11-16T10:19:30.106Z,99248.75
2022-11-16T10:22:13.163Z,99248.23
2022-11-16T10:25:06.189Z,99240.99
2022-11-16T10:27:51.963Z,99239.71
2022-11-16T10:30:22.113Z,99232.98
2022-11-16T10:33:11.071Z,99230.02
2022-11-16T10:35:53.097Z,99225.77
2022-11-16T10:38:28.493Z,99225.73
2022-11-16T10:41:20.341Z,99222.23
2022-11-16T10:43:48.900Z,99220.55
2022-11-16T10:46:40.118Z,99217.15
2022-11-16T10:49:11.844Z,99216.02
2022-11-16T10:51:40.061Z,99217.15
2022-11-16T10:54:15.942Z,99218.24
2022-11-16T10:56:47.130Z,99215.55
2022-11-16T10:59:21.693Z,99214.35
2022-11-16T11:01:54.776Z,99213.91
2022-11-16T11:04:24.746Z,99213.64
2022-11-16T11:06:58.639Z,99208.67
2022-11-16T11:09:36.721Z,99204.36
2022-11-16T11:12:34.383Z,99198.44
2022-11-16T11:15:11.621Z,99197.50
2022-11-16T11:17:45.076Z,99191.63
2022-11-16T11:20:15.822Z,99186.55
2022-11-16T11:22:55.104Z,99186.25
2022-11-16T11:25:30.447Z,99183.64
2022-11-16T11:28:19.538Z,99181.66
2022-11-16T11:31:04.144Z,99175.14
2022-11-16T11:33:40.574Z,99177.06
2022-11-16T11:36:18.785Z,99167.13
2022-11-16T11:39:03.376Z,99162.98
2022-11-16T11:41:37.929Z,99161.70
2022-11-16T11:44:18.578Z,99158.16
2022-11-16T11:49:52.587Z,99154.47
2022-11-16T11:52:31.143Z,99151.69
2022-11-16T11:55:01.621Z,99153.38
2022-11-16T11:57:33.314Z,99151.85
2022-11-16T12:00:03.238Z,99151.16
2022-11-16T12:02:58.028Z,99148.65
2022-11-16T12:05:57.954Z,99146.59
2022-11-16T12:08:31.849Z,99142.55
2022-11-16T12:11:28.822Z,99138.94
2022-11-16T12:14:14.897Z,99135.50
2022-11-16T12:17:04.046Z,99129.99
2022-11-16T12:19:47.183Z,99126.42
2022-11-16T12:22:46.594Z,99123.95
2022-11-16T12:25:25.312Z,99117.59
2022-11-16T12:28:11.324Z,99108.42
2022-11-16T12:31:02.002Z,99107.52
2022-11-16T12:33:48.074Z,99109.10
2022-11-16T12:36:19.454Z,99105.98
2022-11-16T12:38:59.015Z,99100.58
2022-11-16T12:41:26.877Z,99095.49
2022-11-16T12:44:33.833Z,99094.63
2022-11-16T12:47:08.006Z,99089.59
2022-11-16T12:49:36.033Z,99090.09
2022-11-16T12:52:10.122Z,99088.65
2022-11-16T12:58:28.639Z,99078.20
2022-11-16T13:01:11.776Z,99074.92
2022-11-16T13:04:00.185Z,99075.61
2022-11-16T13:06:37.019Z,99073.45
2022-11-16T13:09:16.060Z,99069.54
2022-11-16T13:11:49.812Z,99072.13
2022-11-16T13:14:26.460Z,99072.06
2022-11-16T13:16:55.127Z,99068.16
2022-11-16T13:19:24.260Z,99066.96
2022-11-16T13:22:14.939Z,99065.95
2022-11-16T13:24:54.736Z,99063.55
2022-11-16T13:27:41.724Z,99057.70
2022-11-16T13:30:50.497Z,99054.66
2022-11-16T13:33:31.261Z,99055.23
2022-11-16T13:35:59.316Z,99054.82
2022-11-16T13:38:51.481Z,99052.71
2022-11-16T13:41:33.878Z,99051.34
2022-11-16T13:44:12.436Z,99046.89
2022-11-16T13:46:56.154Z,99045.11
2022-11-16T13:49:34.432Z,99044.23
2022-11-16T13:52:22.517Z,99044.03
2022-11-16T13:54:55.987Z,99040.46
2022-11-16T13:57:31.707Z,99033.80
2022-11-16T14:00:02.684Z,99032.96
2022-11-16T14:02:33.805Z,99028.15
2022-11-16T14:05:34.097Z,99030.39
2022-11-16T14:08:35.279Z,99028.89
2022-11-16T14:11:04.886Z,99025.73
2022-11-16T14:13:42.225Z,99025.86
2022-11-16T14:16:19.682Z,99026.86
2022-11-16T14:18:52.771Z,99023.92
2022-11-16T14:21:42.776Z,99021.16
2022-11-16T14:24:33.943Z,99021.08
2022-11-16T14:27:39.161Z,99022.89
2022-11-16T14:30:29.961Z,99017.73
2022-11-16T14:32:58.293Z,99015.63
2022-11-16T14:35:35.460Z,99009.91
2022-11-16T14:38:06.077Z,99005.95
2022-11-16T14:40:42.375Z,99006.83
2022-11-16T14:43:21.992Z,99001.69
2022-11-16T14:45:57.159Z,99002.34
2022-11-16T14:48:28.240Z,99001.77
2022-11-16T14:51:06.598Z,98995.31
2022-11-16T14:53:39.059Z,98995.84
2022-11-16T14:56:12.987Z,98991.61
2022-11-16T14:58:50.993Z,98990.40
2022-11-16T15:01:23.277Z,98990.14
2022-11-16T15:03:51.813Z,98988.55
2022-11-16T15:06:20.755Z,98985.95
2022-11-16T15:08:54.500Z,98990.92
2022-11-16T15:11:47.442Z,98987.23
2022-11-16T15:14:22.525Z,98983.21
2022-11-16T15:16:53.268Z,98977.23
2022-11-16T15:19:22.254Z,98967.87
2022-11-16T15:21:55.602Z,98968.18
2022-11-16T15:24:32.233Z,98967.34
2022-11-16T15:27:03.587Z,98963.84
2022-11-16T15:29:31.517Z,98966.41
2022-11-16T15:31:59.538Z,98969.19
2022-11-16T15:34:27.864Z,98967.90
2022-11-16T15:36:56.047Z,98966.00
2022-11-16T15:39:29.058Z,98964.89
2022-11-16T15:42:03.300Z,98962.73
2022-11-16T15:44:33.406Z,98960.23
2022-11-16T15:47:03.441Z,98956.77
2022-11-16T15:49:35.628Z,98957.28
2022-11-16T15:52:05.460Z,98958.64
2022-11-16T15:54:55.725Z,98953.40
2022-11-16T15:57:24.676Z,98955.25
2022-11-16T15:59:55.485Z,98956.41
2022-11-16T16:02:27.632Z,98954.59
2022-11-16T16:04:55.890Z,98952.89
2022-11-16T16:07:41.180Z,98950.05
2022-11-16T16:10:28.023Z,98944.73
2022-11-16T16:12:59.174Z,98944.87
2022-11-16T16:15:40.303Z,98941.85
2022-11-16T16:18:36.644Z,98935.85
2022-11-16T16:21:04.967Z,98933.58
2022-11-16T16:23:33.486Z,98929.13
2022-11-16T16:26:04.517Z,98929.73
2022-11-16T16:28:32.448Z,98926.30
2022-11-16T16:31:00.506Z,98925.72
2022-11-16T16:33:29.812Z,98926.15
2022-11-16T16:35:57.739Z,98926.85
2022-11-16T16:38:25.774Z,98924.75
2022-11-16T16:41:00.717Z,98926.09
2022-11-16T16:43:29.587Z,98923.96
2022-11-16T16:46:01.061Z,98922.73
2022-11-16T16:48:29.517Z,98920.20
2022-11-16T16:50:58.020Z,98919.66
2022-11-16T16:53:26.588Z,98917.95
2022-11-16T16:55:55.362Z,98915.76
2022-11-16T16:58:23.705Z,98919.51
2022-11-16T17:00:55.678Z,98922.02
2022-11-16T17:03:26.353Z,98920.25
2022-11-16T17:06:00.283Z,98915.73
2022-11-16T17:08:34.466Z,98914.87
2022-11-16T17:11:03.315Z,98910.56
2022-11-16T17:13:31.747Z,98912.49
2022-11-16T17:16:03.944Z,98912.93
2022-11-16T17:18:31.965Z,98910.28
2022-11-16T17:21:07.950Z,98911.40
2022-11-16T17:23:37.313Z,98908.11
2022-11-16T17:26:07.641Z,98905.08
2022-11-16T17:28:36.302Z,98903.73
2022-11-16T17:31:06.214Z,98901.78
2022-11-16T17:33:36.478Z,98896.39
2022-11-16T17:36:06.511Z,98895.67
2022-11-16T17:38:35.143Z,98893.44
2022-11-16T17:41:12.811Z,98893.89
2022-11-16T17:43:42.347Z,98891.55
2022-11-16T17:46:13.165Z,98890.48
2022-11-16T17:48:43.277Z,98886.38
2022-11-16T17:51:12.777Z,98882.20
2022-11-16T17:53:41.806Z,98882.98
2022-11-16T17:56:12.306Z,98883.73
2022-11-16T17:58:40.451Z,98882.38
2022-11-16T18:01:08.857Z,98881.11
2022-11-16T18:03:37.867Z,98877.25
2022-11-16T18:06:14.839Z,98875.64
2022-11-16T18:08:46.545Z,98870.67
2022-11-16T18:11:19.221Z,98866.45
2022-11-16T18:13:51.562Z,98861.94
2022-11-16T18:16:22.824Z,98857.31
2022-11-16T18:18:57.639Z,98857.17
2022-11-16T18:21:26.413Z,98857.15
2022-11-16T18:23:55.215Z,98855.17
2022-11-16T18:26:24.666Z,98850.21
2022-11-16T18:28:53.947Z,98851.27
2022-11-16T18:31:24.164Z,98849.04
2022-11-16T18:33:52.711Z,98846.05
2022-11-16T18:36:22.428Z,98840.62
2022-11-16T18:38:50.738Z,98837.88
2022-11-16T18:41:22.490Z,98839.65
2022-11-16T18:43:53.471Z,98839.05
2022-11-16T18:46:27.980Z,98835.34
2022-11-16T18:48:57.103Z,98834.65
2022-11-16T18:51:27.961Z,98831.59
2022-11-16T18:53:57.165Z,98830.16
2022-11-16T18:56:25.922Z,98829.09
2022-11-16T18:58:54.462Z,98825.11
2022-11-16T19:01:25.096Z,98824.69
2022-11-16T19:03:55.422Z,98821.46
2022-11-16T19:06:23.934Z,98819.26
2022-11-16T19:08:59.751Z,98821.10
2022-11-16T19:11:28.840Z,98817.11
2022-11-16T19:14:04.798Z,98812.95
2022-11-16T19:16:33.518Z,98816.98
2022-11-16T19:19:01.771Z,98815.42
2022-11-16T19:21:30.612Z,98813.11
2022-11-16T19:23:58.455Z,98811.90
2022-11-16T19:26:27.982Z,98806.33
2022-11-16T19:28:56.146Z,98805.16
2022-11-16T19:31:26.527Z,98801.79
2022-11-16T19:34:00.134Z,98804.21
2022-11-16T19:36:29.843Z,98805.48
2022-11-16T19:38:58.423Z,98806.48
2022-11-16T19:41:27.718Z,98797.24
2022-11-16T19:44:01.933Z,98793.33
2022-11-16T19:46:33.958Z,98789.14
2022-11-16T19:49:02.794Z,98789.83
2022-11-16T19:51:32.910Z,98788.11
2022-11-16T19:54:01.816Z,98787.72
2022-11-16T19:56:29.939Z,98783.92
2022-11-16T19:58:58.140Z,98783.23
2022-11-16T20:01:28.957Z,98780.21
2022-11-16T20:04:00.352Z,98780.33
2022-11-16T20:06:30.811Z,98779.39
2022-11-16T20:09:01.233Z,98778.67
2022-11-16T20:11:35.624Z,98776.13
2022-11-16T20:14:06.805Z,98773.96
2022-11-16T20:16:39.363Z,98771.48
2022-11-16T20:19:08.591Z,98770.83
2022-11-16T20:21:39.271Z,98768.96
2022-11-16T20:24:11.226Z,98764.16
2022-11-16T20:26:45.166Z,98763.01
2022-11-16T20:29:15.145Z,98762.88
2022-11-16T20:31:45.568Z,98757.58
2022-11-16T20:34:15.893Z,98757.59
2022-11-16T20:36:46.378Z,98753.59
2022-11-16T20:39:16.021Z,98752.49
2022-11-16T20:41:44.349Z,98748.87
2022-11-16T20:44:16.726Z,98744.12
2022-11-16T20:46:45.392Z,98742.20
2022-11-16T20:49:13.659Z,98743.86
2022-11-16T20:51:42.235Z,98743.48
2022-11-16T20:54:10.186Z,98736.98
2022-11-16T20:56:38.369Z,98733.31
2022-11-16T20:59:06.312Z,98730.45
2022-11-16T21:01:34.210Z,98729.56
2022-11-16T21:04:05.003Z,98726.30
2022-11-16T21:06:33.608Z,98723.69
2022-11-16T21:09:01.833Z,98721.98
2022-11-16T21:11:51.602Z,98722.13
2022-11-16T21:14:20.272Z,98720.84
2022-11-16T21:16:48.260Z,98720.63
2022-11-16T21:19:16.894Z,98721.88
2022-11-16T21:21:44.978Z,98722.13
2022-11-16T21:24:12.789Z,98721.75
2022-11-16T21:26:40.618Z,98718.70
2022-11-16T21:29:08.837Z,98716.63
2022-11-16T21:31:37.150Z,98720.30
2022-11-16T21:34:07.266Z,98718.16
2022-11-16T21:36:36.409Z,98714.08
2022-11-16T21:39:04.316Z,98714.07
2022-11-16T21:41:32.442Z,98712.13
2022-11-16T21:44:00.617Z,98712.67
2022-11-16T21:46:28.435Z,98711.97
2022-11-16T21:48:57.013Z,98709.55
2022-11-16T21:51:27.332Z,98706.57
2022-11-16T21:53:55.254Z,98705.23
2022-11-16T21:56:25.283Z,98704.42
2022-11-16T21:58:54.111Z,98699.73
2022-11-16T22:01:23.844Z,98698.38
2022-11-16T22:04:11.088Z,98696.77
2022-11-16T22:06:57.519Z,98693.44
2022-11-16T22:09:25.595Z,98692.17
2022-11-16T22:11:53.697Z,98690.67
2022-11-16T22:14:21.863Z,98687.71
2022-11-16T22:16:49.778Z,98682.79
2022-11-16T22:19:17.552Z,98682.43
2022-11-16T22:21:45.356Z,98677.45
2022-11-16T22:24:13.352Z,98671.23
2022-11-16T22:26:41.530Z,98668.24
2022-11-16T22:29:09.452Z,98664.27
2022-11-16T22:31:38.016Z,98664.09
2022-11-16T22:34:06.208Z,98659.58
2022-11-16T22:36:34.998Z,98657.95
2022-11-16T22:39:03.243Z,98653.92
2022-11-16T22:41:31.477Z,98649.20
2022-11-16T22:43:59.800Z,98650.02
2022-11-16T22:46:27.646Z,98644.35
2022-11-16T22:48:55.619Z,98640.23
2022-11-16T22:51:28.536Z,98636.19
2022-11-16T22:53:59.397Z,98635.98
2022-11-16T22:56:28.442Z,98634.65
2022-11-16T22:58:57.358Z,98631.17
2022-11-16T23:01:25.474Z,98630.11
2022-11-16T23:03:53.624Z,98629.29
2022-11-16T23:06:21.554Z,98626.59
2022-11-16T23:08:50.375Z,98624.59
2022-11-16T23:11:39.317Z,98621.23
2022-11-16T23:14:30.615Z,98620.64
2022-11-16T23:16:58.854Z,98623.77
2022-11-16T23:19:46.178Z,98619.06
2022-11-16T23:22:38.965Z,98619.48
2022-11-16T23:25:29.056Z,98615.69
2022-11-16T23:28:14.746Z,98619.67
2022-11-16T23:30:42.987Z,98617.73
2022-11-16T23:33:11.444Z,98623.54
2022-11-16T23:35:39.609Z,98622.89
2022-11-16T23:38:08.536Z,98618.02
2022-11-16T23:40:38.913Z,98616.36
2022-11-16T23:43:28.798Z,98610.83
2022-11-16T23:45:56.813Z,98609.13
2022-11-16T23:48:24.927Z,98605.35
2022-11-16T23:50:53.108Z,98604.72
2022-11-16T23:53:21.174Z,98600.55
2022-11-16T23:55:49.284Z,98600.48
2022-11-16T23:58:17.109Z,98596.87
